Friday, February 23, 2018, 6:32 PM GMT
Back to Local

CWPE, Point Lepreau, N. B.

Location: , , Canada Lat: 45.067
Local Time: 6:32 PM GMT (18:32 GMT) Lon: -66.467
Time Zone: GMT Elev: 3 ft

Show me the last for .
Show Decoded

2018-02-23 18:00 METAR CWPE 231800Z AUTO 17007KT M02/M09 RMK AO1 SOG 02 8034 SLP370 T10171088 =
2018-02-23 17:00 METAR CWPE 231700Z AUTO 14007KT M03/M08 RMK AO1 SOG 02 8030 SLP381 T10261080 =
2018-02-23 16:00 METAR CWPE 231600Z AUTO 11007KT M03/M10 RMK AO1 SOG 02 8020 SLP394 T10281101 =
2018-02-23 15:00 METAR CWPE 231500Z AUTO 09006KT M03/M11 RMK AO1 SOG 02 8010 SLP404 T10331105 =
2018-02-23 14:00 METAR CWPE 231400Z AUTO 07005KT M05/M12 RMK AO1 SOG 02 8003 SLP411 T10471123 =
2018-02-23 13:00 METAR CWPE 231300Z AUTO 05005KT M06/M13 RMK AO1 SOG 02 1006 SLP414 T10581129 =
2018-02-23 12:00 METAR CWPE 231200Z AUTO 04005KT M07/M13 RMK AO1 SOG 02 1008 SLP414 T10701132 =
2018-02-23 11:00 METAR CWPE 231100Z AUTO 04002KT M08/M14 RMK AO1 SOG 02 3007 SLP414 T10841136 =
2018-02-23 10:00 METAR CWPE 231000Z AUTO 36004KT M08/M13 RMK AO1 SOG 02 1007 SLP408 T10791132 =
2018-02-23 09:00 METAR CWPE 230900Z AUTO 36002KT M07/M13 RMK AO1 SOG 02 0009 SLP406 T10731132 =
2018-02-23 08:00 METAR CWPE 230800Z AUTO 01001KT M07/M14 RMK AO1 SOG 02 1019 SLP407 T10691138 =
2018-02-23 07:00 METAR CWPE 230700Z AUTO 01003KT M06/M13 RMK AO1 SOG 02 3015 SLP401 T10551130 =
2018-02-23 06:00 METAR CWPE 230600Z AUTO 36002KT M06/M12 RMK AO1 SOG 02 3016 T10621122 =
2018-02-23 05:00 METAR CWPE 230500Z AUTO 34002KT M06/M12 RMK AO1 SOG 02 3007 T10621119 =
2018-02-23 04:00 METAR CWPE 230400Z AUTO 35002KT M06/M12 RMK AO1 SOG 02 3006 T10551117 =
2018-02-23 03:00 METAR CWPE 230300Z AUTO 33002KT M05/M11 RMK AO1 SOG 02 5000 T10541112 =
2018-02-23 02:00 METAR CWPE 230200Z AUTO 36003KT M04/M11 RMK AO1 SOG 02 1005 T10401111 =
2018-02-23 01:00 METAR CWPE 230100Z AUTO 33003KT M03/M12 RMK AO1 SOG 02 0011 T10311116 =
2018-02-23 00:00 METAR CWPE 230000Z AUTO 33005KT M02/M12 RMK AO1 SOG 02 1019 T10151122 =
2018-02-22 23:00 METAR CWPE 222300Z AUTO 33006KT M02/M13 RMK AO1 SOG 02 3017 T10231130 =
2018-02-22 22:00 METAR CWPE 222200Z AUTO 32007KT M02/M13 RMK AO1 17 SOG 02 3010 T10221131 =
2018-02-22 21:00 METAR CWPE 222100Z AUTO 32008KT M02/M13 RMK AO1 SOG 02 T10201132 =
2018-02-22 20:00 METAR CWPE 222000Z AUTO 32007KT M01/M12 RMK AO1 SOG 02 T10131117 =
2018-02-22 19:00 METAR CWPE 221900Z AUTO 32007KT M01/M12 RMK AO1 SOG 02 T10071121 =

Support USWX by starting your Amazon purchase here.